createdAt,value
2018-12-14T00:02:05.649Z,7.83
2018-12-14T00:04:33.137Z,7.70
2018-12-14T00:07:00.648Z,8.28
2018-12-14T00:09:28.136Z,8.98
2018-12-14T00:11:55.641Z,7.55
2018-12-14T00:14:23.126Z,8.05
2018-12-14T00:16:50.643Z,7.30
2018-12-14T00:19:18.148Z,7.75
2018-12-14T00:21:45.738Z,8.18
2018-12-14T00:24:13.221Z,9.38
2018-12-14T00:26:40.709Z,8.03
2018-12-14T00:29:08.241Z,7.92
2018-12-14T00:31:35.733Z,8.15
2018-12-14T00:34:03.234Z,8.70
2018-12-14T00:36:30.719Z,8.95
2018-12-14T00:38:58.230Z,8.25
2018-12-14T00:41:25.835Z,7.35
2018-12-14T00:43:53.320Z,8.20
2018-12-14T00:46:20.886Z,8.38
2018-12-14T00:48:48.369Z,7.35
2018-12-14T00:51:15.908Z,8.45
2018-12-14T00:53:43.502Z,7.55
2018-12-14T00:56:11.010Z,8.00
2018-12-14T00:58:38.497Z,8.48
2018-12-14T01:01:06.309Z,7.17
2018-12-14T01:03:33.807Z,8.15
2018-12-14T01:06:01.905Z,8.18
2018-12-14T01:08:29.393Z,7.67
2018-12-14T01:10:56.969Z,8.60
2018-12-14T01:13:24.483Z,8.90
2018-12-14T01:15:51.972Z,8.08
2018-12-14T01:18:19.473Z,8.95
2018-12-14T01:20:46.966Z,8.93
2018-12-14T01:23:14.472Z,8.35
2018-12-14T01:25:42.008Z,8.68
2018-12-14T01:28:09.523Z,8.35
2018-12-14T01:30:37.032Z,8.40
2018-12-14T01:33:04.524Z,8.58
2018-12-14T01:35:32.029Z,8.13
2018-12-14T01:37:59.531Z,9.15
2018-12-14T01:40:27.048Z,8.75
2018-12-14T01:42:54.570Z,7.70
2018-12-14T01:45:22.163Z,9.00
2018-12-14T01:47:49.654Z,8.00
2018-12-14T01:50:17.157Z,8.05
2018-12-14T01:52:44.853Z,9.10
2018-12-14T01:55:12.460Z,8.70
2018-12-14T01:57:40.162Z,7.92
2018-12-14T02:00:07.909Z,8.48
2018-12-14T02:02:35.428Z,8.25
2018-12-14T02:05:03.218Z,8.38
2018-12-14T02:07:30.727Z,9.60
2018-12-14T02:09:58.242Z,9.75
2018-12-14T02:12:25.753Z,7.67
2018-12-14T02:14:53.250Z,9.83
2018-12-14T02:17:20.775Z,10.03
2018-12-14T02:19:48.469Z,10.60
2018-12-14T02:22:15.973Z,10.00
2018-12-14T02:24:43.490Z,9.13
2018-12-14T02:27:10.991Z,8.18
2018-12-14T02:29:38.509Z,10.20
2018-12-14T02:32:06.080Z,9.78
2018-12-14T02:34:33.678Z,9.85
2018-12-14T02:37:01.187Z,8.90
2018-12-14T02:39:28.705Z,10.03
2018-12-14T02:41:56.219Z,8.60
2018-12-14T02:44:23.710Z,9.05
2018-12-14T02:46:51.228Z,7.55
2018-12-14T02:49:18.753Z,8.60
2018-12-14T02:51:46.271Z,9.50
2018-12-14T02:54:13.809Z,8.95
2018-12-14T02:56:41.309Z,8.50
2018-12-14T02:59:08.836Z,9.00
2018-12-14T03:01:36.336Z,10.20
2018-12-14T03:04:03.845Z,8.35
2018-12-14T03:06:31.365Z,10.08
2018-12-14T03:08:58.878Z,7.25
2018-12-14T03:11:26.374Z,7.30
2018-12-14T03:13:54.659Z,7.30
2018-12-14T03:16:22.280Z,7.25
2018-12-14T03:18:49.790Z,7.62
2018-12-14T03:21:17.531Z,7.80
2018-12-14T03:23:45.033Z,6.58
2018-12-14T03:26:12.632Z,7.55
2018-12-14T03:28:40.152Z,7.35
2018-12-14T03:31:07.644Z,7.67
2018-12-14T03:33:35.142Z,9.15
2018-12-14T03:36:02.666Z,10.65
2018-12-14T03:38:30.151Z,8.15
2018-12-14T03:40:57.669Z,8.53
2018-12-14T03:43:25.162Z,10.58
2018-12-14T03:45:52.651Z,9.70
2018-12-14T03:48:20.182Z,10.80
2018-12-14T03:50:47.672Z,10.58
2018-12-14T03:53:15.175Z,8.78
2018-12-14T03:55:42.674Z,8.33
2018-12-14T03:58:10.403Z,10.60
2018-12-14T04:00:38.001Z,11.00
2018-12-14T04:03:05.715Z,9.13
2018-12-14T04:05:33.504Z,9.55
2018-12-14T04:08:01.013Z,7.92
2018-12-14T04:10:28.515Z,9.25
2018-12-14T04:12:56.018Z,8.90
2018-12-14T04:15:23.526Z,8.68
2018-12-14T04:17:51.041Z,8.80
2018-12-14T04:20:18.721Z,9.48
2018-12-14T04:22:46.335Z,10.78
2018-12-14T04:25:13.845Z,11.15
2018-12-14T04:27:41.410Z,10.03
2018-12-14T04:30:08.913Z,8.90
2018-12-14T04:32:36.429Z,11.03
2018-12-14T04:35:04.612Z,9.15
2018-12-14T04:37:32.101Z,10.23
2018-12-14T04:39:59.613Z,11.05
2018-12-14T04:42:27.374Z,10.72
2018-12-14T04:44:54.886Z,9.05
2018-12-14T04:47:22.378Z,10.35
2018-12-14T04:49:50.174Z,10.03
2018-12-14T04:52:17.687Z,10.55
2018-12-14T04:54:45.194Z,11.08
2018-12-14T04:57:12.686Z,10.15
2018-12-14T04:59:41.667Z,10.48
2018-12-14T05:02:11.604Z,9.13
2018-12-14T05:04:41.789Z,9.45
2018-12-14T05:07:09.281Z,8.90
2018-12-14T05:09:36.782Z,10.75
2018-12-14T05:12:04.281Z,9.68
2018-12-14T05:14:31.961Z,8.40
2018-12-14T05:16:59.470Z,8.65
2018-12-14T05:19:27.036Z,9.25
2018-12-14T05:21:54.846Z,9.00
2018-12-14T05:24:22.577Z,9.38
2018-12-14T05:26:50.073Z,10.45
2018-12-14T05:29:17.583Z,10.03
2018-12-14T05:31:45.070Z,10.38
2018-12-14T05:34:12.594Z,9.45
2018-12-14T05:36:40.097Z,10.55
2018-12-14T05:39:07.705Z,9.00
2018-12-14T05:41:35.229Z,10.45
2018-12-14T05:44:02.797Z,9.73
2018-12-14T05:46:30.422Z,9.13
2018-12-14T05:48:57.909Z,8.20
2018-12-14T05:51:25.418Z,9.98
2018-12-14T05:53:52.911Z,8.20
2018-12-14T05:56:20.410Z,8.33
2018-12-14T05:58:47.909Z,7.70
2018-12-14T06:01:15.647Z,7.62
2018-12-14T06:03:43.193Z,7.12
2018-12-14T06:06:10.718Z,7.33
2018-12-14T06:08:38.221Z,7.45
2018-12-14T06:11:05.739Z,6.45
2018-12-14T06:13:33.317Z,8.05
2018-12-14T06:16:01.018Z,8.10
2018-12-14T06:18:29.183Z,7.60
2018-12-14T06:20:57.103Z,8.55
2018-12-14T06:23:24.671Z,7.72
2018-12-14T06:25:52.176Z,7.10
2018-12-14T06:28:20.055Z,7.78
2018-12-14T06:30:47.610Z,7.42
2018-12-14T06:33:15.534Z,7.80
2018-12-14T06:35:43.084Z,8.00
2018-12-14T06:38:10.610Z,8.40
2018-12-14T06:40:38.103Z,7.72
2018-12-14T06:43:05.614Z,7.95
2018-12-14T06:45:33.104Z,8.85
2018-12-14T06:48:00.605Z,9.15
2018-12-14T06:50:29.803Z,9.65
2018-12-14T06:52:57.595Z,9.55
2018-12-14T06:55:25.093Z,9.38
2018-12-14T06:57:52.614Z,9.15
2018-12-14T07:00:20.118Z,8.93
2018-12-14T07:02:47.617Z,9.00
2018-12-14T07:05:15.121Z,9.45
2018-12-14T07:07:42.604Z,8.40
2018-12-14T07:10:10.125Z,8.80
2018-12-14T07:12:37.609Z,9.48
2018-12-14T07:15:05.209Z,8.58
2018-12-14T07:17:32.724Z,9.38
2018-12-14T07:20:00.234Z,8.30
2018-12-14T07:22:27.732Z,9.63
2018-12-14T07:24:55.229Z,8.53
2018-12-14T07:27:22.718Z,8.43
2018-12-14T07:29:50.233Z,7.90
2018-12-14T07:32:17.751Z,7.87
2018-12-14T07:34:45.266Z,8.68
2018-12-14T07:37:12.778Z,8.45
2018-12-14T07:39:40.294Z,7.75
2018-12-14T07:42:07.836Z,8.20
2018-12-14T07:44:35.565Z,8.98
2018-12-14T07:47:03.402Z,7.37
2018-12-14T07:49:30.897Z,8.15
2018-12-14T07:51:58.405Z,7.55
2018-12-14T07:54:25.894Z,6.90
2018-12-14T07:56:53.412Z,7.33
2018-12-14T07:59:20.897Z,7.62
2018-12-14T08:01:48.409Z,7.37
2018-12-14T08:04:15.906Z,6.53
2018-12-14T08:06:43.390Z,6.53
2018-12-14T08:09:10.898Z,6.33
2018-12-14T08:11:38.386Z,6.58
2018-12-14T08:14:05.942Z,6.10
2018-12-14T08:16:33.498Z,5.33
2018-12-14T08:19:00.999Z,5.40
2018-12-14T08:21:28.485Z,6.17
2018-12-14T08:23:55.985Z,6.28
2018-12-14T08:26:23.458Z,5.80
2018-12-14T08:28:50.958Z,5.70
2018-12-14T08:31:18.466Z,5.97
2018-12-14T08:33:45.973Z,5.95
2018-12-14T08:36:13.492Z,5.70
2018-12-14T08:38:41.007Z,6.05
2018-12-14T08:41:08.494Z,5.67
2018-12-14T08:43:41.387Z,6.05
2018-12-14T08:46:05.497Z,6.92
2018-12-14T08:48:32.986Z,5.55
2018-12-14T08:51:00.492Z,4.92
2018-12-14T08:53:28.356Z,5.45
2018-12-14T08:55:56.102Z,5.35
2018-12-14T08:58:23.585Z,5.47
2018-12-14T09:00:51.577Z,6.00
2018-12-14T09:03:19.103Z,5.83
2018-12-14T09:05:46.591Z,5.92
2018-12-14T09:08:14.094Z,6.12
2018-12-14T09:10:41.574Z,6.00
2018-12-14T09:13:09.086Z,5.47
2018-12-14T09:15:36.570Z,6.10
2018-12-14T09:18:04.419Z,5.90
2018-12-14T09:20:31.923Z,5.10
2018-12-14T09:22:59.502Z,6.05
2018-12-14T09:25:27.123Z,6.95
2018-12-14T09:27:54.614Z,6.33
2018-12-14T09:30:22.123Z,5.35
2018-12-14T09:32:49.619Z,6.75
2018-12-14T09:35:17.118Z,6.40
2018-12-14T09:37:44.606Z,6.45
2018-12-14T09:40:12.137Z,6.55
2018-12-14T09:42:39.644Z,6.42
2018-12-14T09:45:07.305Z,6.35
2018-12-14T09:47:34.806Z,5.08
2018-12-14T09:50:02.294Z,7.60
2018-12-14T09:52:29.801Z,7.58
2018-12-14T09:54:57.299Z,6.70
2018-12-14T09:57:24.810Z,5.92
2018-12-14T09:59:52.303Z,6.20
2018-12-14T10:02:19.805Z,5.40
2018-12-14T10:04:47.303Z,7.08
2018-12-14T10:07:14.797Z,6.97
2018-12-14T10:09:42.302Z,7.83
2018-12-14T10:12:09.813Z,6.80
2018-12-14T10:14:37.316Z,7.33
2018-12-14T10:17:04.804Z,6.20
2018-12-14T10:19:32.304Z,6.92
2018-12-14T10:21:59.791Z,6.37
2018-12-14T10:24:27.304Z,7.40
2018-12-14T10:26:54.778Z,4.95
2018-12-14T10:29:22.288Z,7.50
2018-12-14T10:31:49.778Z,6.42
2018-12-14T10:34:17.257Z,5.37
2018-12-14T10:36:44.778Z,6.75
2018-12-14T10:39:12.262Z,6.28
2018-12-14T10:41:39.745Z,5.65
2018-12-14T10:44:07.726Z,6.42
2018-12-14T10:46:35.377Z,5.78
2018-12-14T10:49:02.858Z,5.67
2018-12-14T10:51:31.945Z,6.42
2018-12-14T10:53:59.444Z,6.05
2018-12-14T10:56:26.922Z,6.25
2018-12-14T10:58:54.418Z,6.10
2018-12-14T11:01:27.466Z,6.42
2018-12-14T11:03:54.974Z,6.72
2018-12-14T11:06:22.461Z,7.28
2018-12-14T11:08:49.962Z,7.17
2018-12-14T11:11:17.449Z,7.37
2018-12-14T11:13:44.985Z,8.50
2018-12-14T11:16:12.467Z,7.70
2018-12-14T11:18:39.949Z,7.22
2018-12-14T11:21:07.472Z,6.40
2018-12-14T11:23:34.958Z,6.70
2018-12-14T11:26:02.466Z,7.20
2018-12-14T11:28:29.954Z,7.65
2018-12-14T11:30:57.472Z,6.85
2018-12-14T11:33:24.953Z,7.30
2018-12-14T11:35:53.238Z,7.35
2018-12-14T11:38:20.978Z,7.55
2018-12-14T11:40:48.471Z,8.10
2018-12-14T11:43:15.969Z,7.65
2018-12-14T11:45:43.450Z,6.62
2018-12-14T11:48:11.054Z,7.95
2018-12-14T11:50:38.538Z,7.87
2018-12-14T11:53:06.122Z,6.70
2018-12-14T11:55:33.623Z,8.50
2018-12-14T11:58:01.126Z,7.95
2018-12-14T12:00:28.611Z,7.78
2018-12-14T12:02:56.099Z,8.33
2018-12-14T12:05:23.622Z,9.33
2018-12-14T12:07:51.114Z,9.33
2018-12-14T12:10:18.617Z,7.10
2018-12-14T12:12:46.109Z,8.28
2018-12-14T12:15:13.617Z,7.95
2018-12-14T12:17:41.113Z,7.08
2018-12-14T12:20:08.798Z,7.53
2018-12-14T12:22:36.293Z,6.90
2018-12-14T12:25:04.068Z,7.92
2018-12-14T12:27:31.574Z,7.17
2018-12-14T12:29:59.190Z,7.65
2018-12-14T12:32:26.675Z,7.95
2018-12-14T12:34:54.163Z,7.50
2018-12-14T12:37:21.692Z,7.15
2018-12-14T12:39:49.182Z,7.47
2018-12-14T12:42:16.686Z,7.95
2018-12-14T12:44:44.174Z,5.90
2018-12-14T12:47:11.677Z,7.22
2018-12-14T12:49:39.182Z,8.40
2018-12-14T12:52:06.686Z,6.47
2018-12-14T12:54:34.204Z,8.25
2018-12-14T12:57:01.704Z,6.75
2018-12-14T12:59:29.617Z,7.67
2018-12-14T13:01:57.341Z,6.90
2018-12-14T13:04:24.829Z,6.42
2018-12-14T13:06:52.342Z,7.08
2018-12-14T13:09:19.861Z,8.23
2018-12-14T13:11:47.374Z,6.37
2018-12-14T13:14:14.866Z,8.30
2018-12-14T13:16:42.366Z,5.90
2018-12-14T13:19:09.853Z,7.03
2018-12-14T13:21:37.355Z,7.97
2018-12-14T13:24:04.858Z,7.08
2018-12-14T13:26:32.342Z,7.12
2018-12-14T13:28:59.845Z,7.25
2018-12-14T13:31:27.375Z,7.33
2018-12-14T13:33:54.873Z,6.78
2018-12-14T13:36:22.366Z,6.75
2018-12-14T13:38:49.904Z,7.00
2018-12-14T13:41:17.510Z,6.87
2018-12-14T13:43:45.014Z,7.10
2018-12-14T13:46:12.518Z,6.92
2018-12-14T13:48:40.030Z,7.35
2018-12-14T13:51:07.525Z,7.15
2018-12-14T13:53:35.018Z,5.90
2018-12-14T13:56:02.528Z,7.58
2018-12-14T13:58:30.037Z,6.62
2018-12-14T14:00:57.643Z,7.37
2018-12-14T14:03:25.137Z,6.95
2018-12-14T14:05:52.632Z,6.62
2018-12-14T14:08:20.189Z,6.50
2018-12-14T14:10:47.686Z,8.23
2018-12-14T14:13:15.209Z,6.42
2018-12-14T14:15:42.704Z,6.33
2018-12-14T14:18:10.222Z,6.60
2018-12-14T14:20:37.710Z,7.12
2018-12-14T14:23:05.237Z,6.97
2018-12-14T14:25:32.939Z,6.30
2018-12-14T14:28:00.450Z,7.28
2018-12-14T14:30:27.943Z,6.47
2018-12-14T14:32:55.477Z,6.40
2018-12-14T14:35:22.986Z,8.50
2018-12-14T14:37:50.516Z,7.42
2018-12-14T14:40:18.004Z,8.50
2018-12-14T14:42:45.489Z,7.05
2018-12-14T14:45:12.997Z,7.83
2018-12-14T14:47:40.494Z,7.05
2018-12-14T14:50:08.258Z,8.40
2018-12-14T14:52:35.770Z,8.45
2018-12-14T14:55:04.226Z,9.08
2018-12-14T14:57:32.414Z,7.03
2018-12-14T14:59:59.904Z,7.35
2018-12-14T15:02:27.411Z,8.50
2018-12-14T15:04:55.051Z,6.95
2018-12-14T15:07:22.560Z,7.50
2018-12-14T15:09:50.055Z,8.73
2018-12-14T15:12:17.570Z,6.47
2018-12-14T15:14:45.077Z,8.65
2018-12-14T15:17:12.585Z,7.62
2018-12-14T15:19:40.093Z,8.05
2018-12-14T15:22:07.587Z,7.30
2018-12-14T15:24:35.101Z,7.83
2018-12-14T15:27:02.596Z,10.32
2018-12-14T15:29:30.114Z,10.35
2018-12-14T15:31:58.045Z,9.20
2018-12-14T15:34:25.669Z,9.35
2018-12-14T15:36:53.185Z,11.45
2018-12-14T15:39:20.723Z,26.73
2018-12-14T15:41:48.202Z,9.90
2018-12-14T15:44:15.806Z,8.10
2018-12-14T15:46:43.311Z,15.98
2018-12-14T15:49:10.835Z,9.23
2018-12-14T15:51:38.329Z,7.78
2018-12-14T15:54:05.853Z,7.37
2018-12-14T15:56:33.361Z,7.22
2018-12-14T15:59:00.939Z,8.13
2018-12-14T16:01:28.470Z,7.65
2018-12-14T16:03:55.976Z,10.03
2018-12-14T16:06:23.473Z,7.35
2018-12-14T16:08:50.994Z,7.90
2018-12-14T16:11:18.512Z,8.60
2018-12-14T16:13:46.032Z,8.53
2018-12-14T16:16:13.540Z,7.90
2018-12-14T16:18:41.691Z,8.35
2018-12-14T16:21:09.218Z,7.58
2018-12-14T16:23:36.745Z,8.20
2018-12-14T16:26:04.358Z,8.95
2018-12-14T16:28:31.865Z,7.50
2018-12-14T16:30:59.375Z,7.53
2018-12-14T16:33:26.886Z,7.90
2018-12-14T16:35:54.384Z,7.12
2018-12-14T16:38:21.889Z,8.18
2018-12-14T16:40:49.373Z,7.30
2018-12-14T16:43:16.893Z,6.65
2018-12-14T16:45:44.386Z,7.85
2018-12-14T16:48:12.617Z,7.55
2018-12-14T16:50:40.220Z,12.05
2018-12-14T16:53:07.722Z,13.90
2018-12-14T16:55:35.238Z,9.18
2018-12-14T16:58:02.868Z,8.25
2018-12-14T17:00:30.378Z,8.05
2018-12-14T17:02:57.961Z,8.35
2018-12-14T17:05:25.493Z,9.08
2018-12-14T17:07:52.990Z,12.30
2018-12-14T17:10:20.609Z,12.18
2018-12-14T17:12:48.103Z,28.80
2018-12-14T17:15:15.627Z,12.80
2018-12-14T17:17:43.120Z,14.20
2018-12-14T17:20:10.642Z,13.75
2018-12-14T17:22:38.146Z,10.60
2018-12-14T17:25:06.036Z,9.20
2018-12-14T17:27:33.541Z,10.78
2018-12-14T17:30:01.047Z,10.45
2018-12-14T17:32:28.556Z,20.17
2018-12-14T17:34:56.067Z,15.98
2018-12-14T17:37:23.581Z,15.10
2018-12-14T17:39:51.103Z,12.58
2018-12-14T17:42:18.592Z,12.23
2018-12-14T17:44:46.181Z,10.38
2018-12-14T17:47:13.701Z,9.63
2018-12-14T17:49:41.222Z,10.20
2018-12-14T17:52:10.686Z,9.53
2018-12-14T17:54:38.173Z,11.05
2018-12-14T17:57:05.698Z,10.45
2018-12-14T17:59:33.247Z,8.98
2018-12-14T18:02:00.928Z,10.58
2018-12-14T18:04:28.431Z,11.05
2018-12-14T18:06:55.942Z,10.43
2018-12-14T18:09:23.449Z,11.45
2018-12-14T18:11:50.958Z,10.58
2018-12-14T18:14:18.548Z,10.68
2018-12-14T18:16:46.131Z,10.15
2018-12-14T18:19:13.830Z,9.93
2018-12-14T18:21:41.321Z,10.55
2018-12-14T18:24:08.845Z,10.18
2018-12-14T18:26:36.342Z,9.68
2018-12-14T18:29:03.855Z,10.05
2018-12-14T18:31:31.370Z,10.60
2018-12-14T18:33:58.882Z,13.58
2018-12-14T18:36:26.374Z,11.05
2018-12-14T18:38:53.931Z,11.30
2018-12-14T18:41:21.435Z,11.60
2018-12-14T18:43:49.822Z,10.40
2018-12-14T18:46:17.397Z,10.45
2018-12-14T18:48:44.905Z,11.75
2018-12-14T18:51:12.400Z,9.65
2018-12-14T18:53:41.889Z,9.78
2018-12-14T18:56:09.397Z,10.55
2018-12-14T18:58:36.906Z,11.95
2018-12-14T19:01:04.426Z,10.70
2018-12-14T19:03:32.457Z,10.23
2018-12-14T19:05:59.976Z,11.20
2018-12-14T19:08:27.508Z,11.03
2018-12-14T19:10:55.087Z,11.22
2018-12-14T19:13:22.599Z,11.40
2018-12-14T19:15:50.128Z,13.05
2018-12-14T19:18:17.638Z,13.60
2018-12-14T19:20:45.149Z,12.10
2018-12-14T19:23:19.305Z,13.22
2018-12-14T19:25:42.173Z,11.12
2018-12-14T19:28:09.700Z,10.10
2018-12-14T19:30:37.222Z,12.93
2018-12-14T19:33:06.522Z,12.13
2018-12-14T19:35:34.033Z,11.25
2018-12-14T19:38:01.658Z,11.05
2018-12-14T19:40:29.206Z,10.88
2018-12-14T19:42:57.004Z,12.25
2018-12-14T19:45:24.525Z,12.28
2018-12-14T19:47:52.090Z,12.82
2018-12-14T19:50:19.630Z,11.88
2018-12-14T19:52:47.120Z,15.88
2018-12-14T19:55:14.639Z,14.33
2018-12-14T19:57:42.159Z,12.98
2018-12-14T20:00:12.009Z,12.98
2018-12-14T20:02:39.586Z,12.93
2018-12-14T20:05:08.083Z,14.10
2018-12-14T20:07:35.577Z,14.70
2018-12-14T20:10:03.562Z,12.82
2018-12-14T20:12:31.078Z,11.83
2018-12-14T20:14:58.573Z,14.45
2018-12-14T20:17:26.161Z,15.13
2018-12-14T20:19:53.665Z,14.68
2018-12-14T20:22:21.171Z,17.05
2018-12-14T20:24:48.689Z,14.35
2018-12-14T20:27:16.195Z,15.68
2018-12-14T20:29:44.278Z,13.43
2018-12-14T20:32:11.834Z,14.23
2018-12-14T20:34:39.329Z,13.68
2018-12-14T20:37:06.883Z,12.45
2018-12-14T20:39:34.380Z,15.18
2018-12-14T20:42:01.985Z,14.05
2018-12-14T20:44:29.494Z,12.43
2018-12-14T20:46:56.985Z,11.70
2018-12-14T20:49:24.512Z,13.93
2018-12-14T20:51:52.031Z,13.43
2018-12-14T20:54:19.525Z,11.85
2018-12-14T20:56:51.617Z,12.73
2018-12-14T20:59:16.575Z,13.75
2018-12-14T21:01:44.095Z,12.60
2018-12-14T21:04:11.599Z,12.43
2018-12-14T21:06:39.116Z,13.08
2018-12-14T21:09:06.609Z,12.07
2018-12-14T21:11:34.114Z,12.95
2018-12-14T21:14:01.627Z,13.15
2018-12-14T21:16:29.133Z,13.60
2018-12-14T21:18:56.627Z,12.80
2018-12-14T21:21:24.149Z,13.15
2018-12-14T21:23:51.649Z,13.28
2018-12-14T21:26:19.173Z,13.50
2018-12-14T21:28:46.673Z,12.65
2018-12-14T21:31:14.181Z,13.60
2018-12-14T21:33:41.669Z,12.50
2018-12-14T21:36:09.179Z,13.90
2018-12-14T21:38:36.674Z,12.78
2018-12-14T21:41:04.184Z,13.13
2018-12-14T21:43:31.779Z,13.58
2018-12-14T21:45:59.297Z,12.68
2018-12-14T21:48:26.800Z,12.43
2018-12-14T21:50:54.289Z,11.68
2018-12-14T21:53:21.812Z,12.18
2018-12-14T21:55:49.310Z,12.13
2018-12-14T21:58:16.831Z,11.18
2018-12-14T22:00:44.321Z,12.10
2018-12-14T22:03:11.812Z,12.35
2018-12-14T22:05:39.340Z,13.05
2018-12-14T22:08:06.833Z,12.13
2018-12-14T22:10:34.347Z,12.33
2018-12-14T22:13:01.842Z,11.85
2018-12-14T22:15:29.356Z,11.57
2018-12-14T22:17:56.862Z,13.03
2018-12-14T22:20:24.374Z,13.03
2018-12-14T22:22:51.885Z,13.05
2018-12-14T22:25:19.402Z,11.53
2018-12-14T22:27:46.894Z,11.35
2018-12-14T22:30:14.409Z,11.57
2018-12-14T22:32:41.911Z,10.00
2018-12-14T22:35:09.508Z,11.40
2018-12-14T22:37:37.019Z,12.20
2018-12-14T22:40:05.495Z,11.35
2018-12-14T22:42:33.001Z,11.40
2018-12-14T22:45:00.517Z,12.10
2018-12-14T22:47:28.042Z,12.58
2018-12-14T22:49:55.529Z,13.55
2018-12-14T22:52:23.022Z,12.73
2018-12-14T22:54:50.551Z,12.60
2018-12-14T22:57:18.052Z,12.37
2018-12-14T22:59:45.580Z,12.50
2018-12-14T23:02:13.187Z,13.93
2018-12-14T23:04:40.702Z,13.98
2018-12-14T23:07:08.198Z,13.43
2018-12-14T23:09:35.714Z,12.05
2018-12-14T23:12:03.300Z,13.60
2018-12-14T23:14:30.935Z,12.07
2018-12-14T23:16:58.426Z,12.28
2018-12-14T23:19:25.953Z,12.20
2018-12-14T23:21:53.728Z,11.33
2018-12-14T23:24:21.250Z,11.35
2018-12-14T23:26:48.771Z,14.25
2018-12-14T23:29:16.285Z,11.80
2018-12-14T23:31:43.783Z,10.68
2018-12-14T23:34:11.293Z,11.12
2018-12-14T23:36:39.086Z,10.38
2018-12-14T23:39:06.619Z,9.88
2018-12-14T23:41:34.113Z,12.78
2018-12-14T23:44:01.800Z,10.18
2018-12-14T23:46:29.313Z,10.75
2018-12-14T23:48:56.806Z,13.48
2018-12-14T23:51:24.315Z,12.07
2018-12-14T23:53:51.802Z,13.35
2018-12-14T23:56:19.310Z,12.65
2018-12-14T23:58:46.806Z,10.55
